sensor_id;sensor_type;location;lat;lon;timestamp;pressure;altitude;pressure_sealevel;temperature;humidity
19624;BME280;9959;49.798;9.928;2022-11-14T00:00:35;99645.78;;;1.71;100.00
19624;BME280;9959;49.798;9.928;2022-11-14T00:03:05;99650.84;;;1.64;100.00
19624;BME280;9959;49.798;9.928;2022-11-14T00:05:40;99645.66;;;1.64;100.00
19624;BME280;9959;49.798;9.928;2022-11-14T00:08:13;99649.34;;;1.70;100.00
19624;BME280;9959;49.798;9.928;2022-11-14T00:10:44;99645.16;;;1.69;100.00
19624;BME280;9959;49.798;9.928;2022-11-14T00:13:13;99654.72;;;1.77;100.00
19624;BME280;9959;49.798;9.928;2022-11-14T00:15:41;99641.44;;;1.71;100.00
19624;BME280;9959;49.798;9.928;2022-11-14T00:18:09;99631.66;;;1.65;100.00
19624;BME280;9959;49.798;9.928;2022-11-14T00:20:39;99632.78;;;1.71;100.00
19624;BME280;9959;49.798;9.928;2022-11-14T00:23:07;99641.25;;;1.73;100.00
19624;BME280;9959;49.798;9.928;2022-11-14T00:25:34;99631.50;;;1.67;100.00
19624;BME280;9959;49.798;9.928;2022-11-14T00:28:02;99635.06;;;1.74;100.00
19624;BME280;9959;49.798;9.928;2022-11-14T00:30:30;99634.91;;;1.76;100.00
19624;BME280;9959;49.798;9.928;2022-11-14T00:32:58;99632.50;;;1.66;100.00
19624;BME280;9959;49.798;9.928;2022-11-14T00:35:26;99632.94;;;1.61;100.00
19624;BME280;9959;49.798;9.928;2022-11-14T00:37:55;99631.19;;;1.62;100.00
19624;BME280;9959;49.798;9.928;2022-11-14T00:40:23;99633.59;;;1.55;100.00
19624;BME280;9959;49.798;9.928;2022-11-14T00:42:51;99625.47;;;1.42;100.00
19624;BME280;9959;49.798;9.928;2022-11-14T00:45:19;99626.59;;;1.39;100.00
19624;BME280;9959;49.798;9.928;2022-11-14T00:47:47;99626.47;;;1.49;100.00
19624;BME280;9959;49.798;9.928;2022-11-14T00:50:15;99626.44;;;1.41;100.00
19624;BME280;9959;49.798;9.928;2022-11-14T00:52:43;99617.50;;;1.35;100.00
19624;BME280;9959;49.798;9.928;2022-11-14T00:55:12;99619.78;;;1.30;100.00
19624;BME280;9959;49.798;9.928;2022-11-14T00:57:40;99612.13;;;1.28;100.00
19624;BME280;9959;49.798;9.928;2022-11-14T01:00:10;99615.06;;;1.17;100.00
19624;BME280;9959;49.798;9.928;2022-11-14T01:02:39;99606.28;;;1.10;100.00
19624;BME280;9959;49.798;9.928;2022-11-14T01:05:08;99599.63;;;1.07;100.00
19624;BME280;9959;49.798;9.928;2022-11-14T01:07:36;99605.44;;;1.09;100.00
19624;BME280;9959;49.798;9.928;2022-11-14T01:10:05;99603.19;;;1.14;100.00
19624;BME280;9959;49.798;9.928;2022-11-14T01:12:34;99605.66;;;1.32;100.00
19624;BME280;9959;49.798;9.928;2022-11-14T01:15:02;99602.22;;;1.24;100.00
19624;BME280;9959;49.798;9.928;2022-11-14T01:17:31;99595.88;;;1.18;100.00
19624;BME280;9959;49.798;9.928;2022-11-14T01:19:59;99597.19;;;1.14;100.00
19624;BME280;9959;49.798;9.928;2022-11-14T01:22:28;99594.25;;;1.09;100.00
19624;BME280;9959;49.798;9.928;2022-11-14T01:24:56;99599.44;;;1.09;100.00
19624;BME280;9959;49.798;9.928;2022-11-14T01:27:25;99592.94;;;1.04;100.00
19624;BME280;9959;49.798;9.928;2022-11-14T01:29:54;99597.69;;;1.17;100.00
19624;BME280;9959;49.798;9.928;2022-11-14T01:32:22;99590.69;;;1.10;100.00
19624;BME280;9959;49.798;9.928;2022-11-14T01:34:50;99590.22;;;1.23;100.00
19624;BME280;9959;49.798;9.928;2022-11-14T01:37:18;99581.91;;;1.11;100.00
19624;BME280;9959;49.798;9.928;2022-11-14T01:39:46;99575.13;;;1.10;100.00
19624;BME280;9959;49.798;9.928;2022-11-14T01:42:14;99577.03;;;1.08;100.00
19624;BME280;9959;49.798;9.928;2022-11-14T01:44:51;99566.50;;;1.09;100.00
19624;BME280;9959;49.798;9.928;2022-11-14T01:47:22;99560.69;;;1.32;100.00
19624;BME280;9959;49.798;9.928;2022-11-14T01:49:53;99568.00;;;1.20;100.00
19624;BME280;9959;49.798;9.928;2022-11-14T01:52:25;99563.78;;;1.27;100.00
19624;BME280;9959;49.798;9.928;2022-11-14T01:54:57;99556.47;;;1.23;100.00
19624;BME280;9959;49.798;9.928;2022-11-14T01:57:34;99557.28;;;1.23;100.00
19624;BME280;9959;49.798;9.928;2022-11-14T02:00:10;99555.34;;;1.17;100.00
19624;BME280;9959;49.798;9.928;2022-11-14T02:02:40;99543.81;;;1.11;100.00
19624;BME280;9959;49.798;9.928;2022-11-14T02:05:12;99539.44;;;1.20;100.00
19624;BME280;9959;49.798;9.928;2022-11-14T02:07:42;99542.00;;;1.03;100.00
19624;BME280;9959;49.798;9.928;2022-11-14T02:10:15;99533.53;;;0.93;100.00
19624;BME280;9959;49.798;9.928;2022-11-14T02:12:43;99533.75;;;1.08;100.00
19624;BME280;9959;49.798;9.928;2022-11-14T02:15:13;99534.56;;;1.17;100.00
19624;BME280;9959;49.798;9.928;2022-11-14T02:17:43;99532.75;;;1.09;100.00
19624;BME280;9959;49.798;9.928;2022-11-14T02:20:20;99529.97;;;0.94;100.00
19624;BME280;9959;49.798;9.928;2022-11-14T02:22:48;99525.75;;;0.93;100.00
19624;BME280;9959;49.798;9.928;2022-11-14T02:25:17;99528.22;;;1.03;100.00
19624;BME280;9959;49.798;9.928;2022-11-14T02:27:45;99523.16;;;0.93;100.00
19624;BME280;9959;49.798;9.928;2022-11-14T02:30:16;99520.25;;;1.04;100.00
19624;BME280;9959;49.798;9.928;2022-11-14T02:32:44;99523.81;;;0.95;100.00
19624;BME280;9959;49.798;9.928;2022-11-14T02:35:33;99518.94;;;0.84;100.00
19624;BME280;9959;49.798;9.928;2022-11-14T02:38:01;99522.19;;;0.86;100.00
19624;BME280;9959;49.798;9.928;2022-11-14T02:40:29;99521.38;;;1.02;100.00
19624;BME280;9959;49.798;9.928;2022-11-14T02:42:57;99523.66;;;1.05;100.00
19624;BME280;9959;49.798;9.928;2022-11-14T02:45:25;99524.31;;;0.99;100.00
19624;BME280;9959;49.798;9.928;2022-11-14T02:47:53;99518.63;;;0.87;100.00
19624;BME280;9959;49.798;9.928;2022-11-14T02:50:21;99523.66;;;0.89;100.00
19624;BME280;9959;49.798;9.928;2022-11-14T02:52:51;99520.22;;;0.80;100.00
19624;BME280;9959;49.798;9.928;2022-11-14T02:55:19;99517.78;;;0.78;100.00
19624;BME280;9959;49.798;9.928;2022-11-14T02:57:47;99515.84;;;0.72;100.00
19624;BME280;9959;49.798;9.928;2022-11-14T03:00:16;99524.63;;;0.79;100.00
19624;BME280;9959;49.798;9.928;2022-11-14T03:02:44;99518.13;;;0.75;100.00
19624;BME280;9959;49.798;9.928;2022-11-14T03:05:12;99517.31;;;0.83;100.00
19624;BME280;9959;49.798;9.928;2022-11-14T03:07:40;99508.66;;;0.66;100.00
19624;BME280;9959;49.798;9.928;2022-11-14T03:10:10;99507.91;;;0.74;100.00
19624;BME280;9959;49.798;9.928;2022-11-14T03:12:39;99504.00;;;0.69;100.00
19624;BME280;9959;49.798;9.928;2022-11-14T03:15:08;99506.56;;;0.61;100.00
19624;BME280;9959;49.798;9.928;2022-11-14T03:17:36;99498.81;;;0.69;100.00
19624;BME280;9959;49.798;9.928;2022-11-14T03:20:06;99491.50;;;0.73;100.00
19624;BME280;9959;49.798;9.928;2022-11-14T03:22:34;99490.88;;;0.96;100.00
19624;BME280;9959;49.798;9.928;2022-11-14T03:25:02;99474.97;;;0.82;100.00
19624;BME280;9959;49.798;9.928;2022-11-14T03:27:31;99476.59;;;0.75;100.00
19624;BME280;9959;49.798;9.928;2022-11-14T03:29:59;99477.22;;;0.77;100.00
19624;BME280;9959;49.798;9.928;2022-11-14T03:32:27;99484.53;;;0.82;100.00
19624;BME280;9959;49.798;9.928;2022-11-14T03:34:55;99479.03;;;0.77;100.00
19624;BME280;9959;49.798;9.928;2022-11-14T03:37:24;99477.56;;;0.74;100.00
19624;BME280;9959;49.798;9.928;2022-11-14T03:39:52;99475.59;;;0.68;100.00
19624;BME280;9959;49.798;9.928;2022-11-14T03:42:20;99480.28;;;0.64;100.00
19624;BME280;9959;49.798;9.928;2022-11-14T03:44:49;99475.44;;;0.69;100.00
19624;BME280;9959;49.798;9.928;2022-11-14T03:47:17;99480.13;;;0.58;100.00
19624;BME280;9959;49.798;9.928;2022-11-14T03:49:45;99480.09;;;0.49;100.00
19624;BME280;9959;49.798;9.928;2022-11-14T03:52:13;99484.94;;;0.44;100.00
19624;BME280;9959;49.798;9.928;2022-11-14T03:54:41;99492.56;;;0.46;100.00
19624;BME280;9959;49.798;9.928;2022-11-14T03:57:09;99491.13;;;0.51;100.00
19624;BME280;9959;49.798;9.928;2022-11-14T03:59:37;99500.56;;;0.61;100.00
19624;BME280;9959;49.798;9.928;2022-11-14T04:02:06;99497.66;;;0.64;100.00
19624;BME280;9959;49.798;9.928;2022-11-14T04:04:34;99494.84;;;0.49;100.00
19624;BME280;9959;49.798;9.928;2022-11-14T04:07:02;99489.19;;;0.62;100.00
19624;BME280;9959;49.798;9.928;2022-11-14T04:09:30;99495.34;;;0.52;100.00
19624;BME280;9959;49.798;9.928;2022-11-14T04:11:58;99483.34;;;0.51;100.00
19624;BME280;9959;49.798;9.928;2022-11-14T04:14:26;99482.19;;;0.38;100.00
19624;BME280;9959;49.798;9.928;2022-11-14T04:16:54;99477.78;;;0.30;100.00
19624;BME280;9959;49.798;9.928;2022-11-14T04:19:23;99481.81;;;0.24;100.00
19624;BME280;9959;49.798;9.928;2022-11-14T04:21:51;99474.22;;;0.31;100.00
19624;BME280;9959;49.798;9.928;2022-11-14T04:24:19;99476.16;;;0.37;100.00
19624;BME280;9959;49.798;9.928;2022-11-14T04:26:47;99472.31;;;0.49;100.00
19624;BME280;9959;49.798;9.928;2022-11-14T04:29:15;99475.91;;;0.57;100.00
19624;BME280;9959;49.798;9.928;2022-11-14T04:31:43;99471.53;;;0.65;100.00
19624;BME280;9959;49.798;9.928;2022-11-14T04:34:11;99466.53;;;0.72;100.00
19624;BME280;9959;49.798;9.928;2022-11-14T04:36:40;99474.47;;;0.79;100.00
19624;BME280;9959;49.798;9.928;2022-11-14T04:39:08;99478.41;;;0.91;100.00
19624;BME280;9959;49.798;9.928;2022-11-14T04:41:36;99476.47;;;1.10;100.00
19624;BME280;9959;49.798;9.928;2022-11-14T04:44:04;99480.66;;;1.19;100.00
19624;BME280;9959;49.798;9.928;2022-11-14T04:46:32;99469.28;;;1.28;100.00
19624;BME280;9959;49.798;9.928;2022-11-14T04:49:00;99469.63;;;1.42;100.00
19624;BME280;9959;49.798;9.928;2022-11-14T04:51:28;99474.16;;;1.48;100.00
19624;BME280;9959;49.798;9.928;2022-11-14T04:53:58;99477.88;;;1.53;100.00
19624;BME280;9959;49.798;9.928;2022-11-14T04:56:26;99473.75;;;1.76;100.00
19624;BME280;9959;49.798;9.928;2022-11-14T04:58:54;99474.88;;;1.81;100.00
19624;BME280;9959;49.798;9.928;2022-11-14T05:01:22;99464.47;;;1.81;100.00
19624;BME280;9959;49.798;9.928;2022-11-14T05:03:50;99457.16;;;1.85;100.00
19624;BME280;9959;49.798;9.928;2022-11-14T05:06:19;99457.69;;;1.80;100.00
19624;BME280;9959;49.798;9.928;2022-11-14T05:08:47;99445.53;;;1.64;100.00
19624;BME280;9959;49.798;9.928;2022-11-14T05:11:17;99442.13;;;1.55;100.00
19624;BME280;9959;49.798;9.928;2022-11-14T05:13:51;99442.63;;;1.59;100.00
19624;BME280;9959;49.798;9.928;2022-11-14T05:16:19;99446.19;;;1.58;100.00
19624;BME280;9959;49.798;9.928;2022-11-14T05:18:46;99461.75;;;1.75;100.00
19624;BME280;9959;49.798;9.928;2022-11-14T05:21:14;99454.22;;;1.88;100.00
19624;BME280;9959;49.798;9.928;2022-11-14T05:23:42;99461.06;;;1.89;100.00
19624;BME280;9959;49.798;9.928;2022-11-14T05:26:13;99468.81;;;1.97;100.00
19624;BME280;9959;49.798;9.928;2022-11-14T05:28:42;99473.34;;;2.03;100.00
19624;BME280;9959;49.798;9.928;2022-11-14T05:31:12;99464.88;;;2.10;100.00
19624;BME280;9959;49.798;9.928;2022-11-14T05:33:44;99471.47;;;2.20;100.00
19624;BME280;9959;49.798;9.928;2022-11-14T05:36:13;99479.28;;;2.20;100.00
19624;BME280;9959;49.798;9.928;2022-11-14T05:38:42;99475.16;;;2.34;100.00
19624;BME280;9959;49.798;9.928;2022-11-14T05:41:12;99474.97;;;2.44;100.00
19624;BME280;9959;49.798;9.928;2022-11-14T05:43:42;99460.66;;;2.40;100.00
19624;BME280;9959;49.798;9.928;2022-11-14T05:46:12;99472.63;;;2.49;100.00
19624;BME280;9959;49.798;9.928;2022-11-14T05:48:40;99465.34;;;2.45;100.00
19624;BME280;9959;49.798;9.928;2022-11-14T05:51:10;99454.72;;;2.54;100.00
19624;BME280;9959;49.798;9.928;2022-11-14T05:53:39;99449.69;;;2.53;100.00
19624;BME280;9959;49.798;9.928;2022-11-14T05:56:09;99444.94;;;2.56;100.00
19624;BME280;9959;49.798;9.928;2022-11-14T05:58:38;99454.50;;;2.64;100.00
19624;BME280;9959;49.798;9.928;2022-11-14T06:01:08;99451.56;;;2.67;100.00
19624;BME280;9959;49.798;9.928;2022-11-14T06:03:38;99454.13;;;2.75;100.00
19624;BME280;9959;49.798;9.928;2022-11-14T06:06:08;99449.19;;;2.81;100.00
19624;BME280;9959;49.798;9.928;2022-11-14T06:08:37;99455.84;;;2.83;100.00
19624;BME280;9959;49.798;9.928;2022-11-14T06:11:07;99461.53;;;2.87;100.00
19624;BME280;9959;49.798;9.928;2022-11-14T06:13:36;99481.69;;;2.85;100.00
19624;BME280;9959;49.798;9.928;2022-11-14T06:16:06;99476.31;;;2.86;100.00
19624;BME280;9959;49.798;9.928;2022-11-14T06:18:36;99481.34;;;2.88;100.00
19624;BME280;9959;49.798;9.928;2022-11-14T06:21:05;99477.97;;;3.02;100.00
19624;BME280;9959;49.798;9.928;2022-11-14T06:23:33;99477.53;;;2.99;100.00
19624;BME280;9959;49.798;9.928;2022-11-14T06:26:03;99482.53;;;3.08;100.00
19624;BME280;9959;49.798;9.928;2022-11-14T06:28:32;99486.84;;;3.16;100.00
19624;BME280;9959;49.798;9.928;2022-11-14T06:31:01;99493.09;;;3.30;100.00
19624;BME280;9959;49.798;9.928;2022-11-14T06:33:33;99483.03;;;3.42;100.00
19624;BME280;9959;49.798;9.928;2022-11-14T06:36:04;99476.03;;;3.42;100.00
19624;BME280;9959;49.798;9.928;2022-11-14T06:38:34;99490.44;;;3.53;100.00
19624;BME280;9959;49.798;9.928;2022-11-14T06:41:03;99486.75;;;3.47;100.00
19624;BME280;9959;49.798;9.928;2022-11-14T06:43:32;99486.50;;;3.57;100.00
19624;BME280;9959;49.798;9.928;2022-11-14T06:46:00;99501.47;;;3.55;100.00
19624;BME280;9959;49.798;9.928;2022-11-14T06:48:29;99509.22;;;3.63;100.00
19624;BME280;9959;49.798;9.928;2022-11-14T06:50:59;99502.84;;;3.66;100.00
19624;BME280;9959;49.798;9.928;2022-11-14T06:53:30;99495.66;;;3.83;100.00
19624;BME280;9959;49.798;9.928;2022-11-14T06:55:59;99494.84;;;3.82;100.00
19624;BME280;9959;49.798;9.928;2022-11-14T06:58:29;99482.44;;;3.85;100.00
19624;BME280;9959;49.798;9.928;2022-11-14T07:01:02;99498.09;;;3.85;100.00
19624;BME280;9959;49.798;9.928;2022-11-14T07:03:30;99488.56;;;3.92;100.00
19624;BME280;9959;49.798;9.928;2022-11-14T07:05:59;99492.25;;;3.97;100.00
19624;BME280;9959;49.798;9.928;2022-11-14T07:08:28;99494.31;;;4.02;100.00
19624;BME280;9959;49.798;9.928;2022-11-14T07:11:00;99488.09;;;4.18;100.00
19624;BME280;9959;49.798;9.928;2022-11-14T07:13:29;99492.97;;;4.21;100.00
19624;BME280;9959;49.798;9.928;2022-11-14T07:15:58;99513.56;;;4.16;100.00
19624;BME280;9959;49.798;9.928;2022-11-14T07:18:28;99508.88;;;4.26;100.00
19624;BME280;9959;49.798;9.928;2022-11-14T07:20:57;99503.44;;;4.43;100.00
19624;BME280;9959;49.798;9.928;2022-11-14T07:23:26;99505.25;;;4.42;100.00
19624;BME280;9959;49.798;9.928;2022-11-14T07:25:59;99497.59;;;4.41;100.00
19624;BME280;9959;49.798;9.928;2022-11-14T07:28:28;99485.09;;;4.36;100.00
19624;BME280;9959;49.798;9.928;2022-11-14T07:30:56;99489.22;;;4.45;100.00
19624;BME280;9959;49.798;9.928;2022-11-14T07:33:24;99489.03;;;4.47;100.00
19624;BME280;9959;49.798;9.928;2022-11-14T07:35:52;99502.97;;;4.54;100.00
19624;BME280;9959;49.798;9.928;2022-11-14T07:38:20;99499.81;;;4.59;100.00
19624;BME280;9959;49.798;9.928;2022-11-14T07:40:52;99493.41;;;4.61;100.00
19624;BME280;9959;49.798;9.928;2022-11-14T07:43:27;99482.91;;;4.55;100.00
19624;BME280;9959;49.798;9.928;2022-11-14T07:45:58;99479.31;;;4.56;100.00
19624;BME280;9959;49.798;9.928;2022-11-14T07:48:26;99483.22;;;4.66;100.00
19624;BME280;9959;49.798;9.928;2022-11-14T07:50:57;99491.13;;;4.73;100.00
19624;BME280;9959;49.798;9.928;2022-11-14T07:53:25;99495.75;;;4.71;100.00
19624;BME280;9959;49.798;9.928;2022-11-14T07:55:53;99497.66;;;4.84;100.00
19624;BME280;9959;49.798;9.928;2022-11-14T07:58:21;99500.91;;;4.86;100.00
19624;BME280;9959;49.798;9.928;2022-11-14T08:00:50;99490.75;;;4.76;100.00
19624;BME280;9959;49.798;9.928;2022-11-14T08:03:18;99490.25;;;4.88;100.00
19624;BME280;9959;49.798;9.928;2022-11-14T08:05:46;99496.78;;;4.98;100.00
19624;BME280;9959;49.798;9.928;2022-11-14T08:08:14;99510.78;;;4.91;100.00
19624;BME280;9959;49.798;9.928;2022-11-14T08:10:42;99510.38;;;5.09;100.00
19624;BME280;9959;49.798;9.928;2022-11-14T08:13:10;99519.56;;;5.04;100.00
19624;BME280;9959;49.798;9.928;2022-11-14T08:16:02;99523.94;;;4.97;100.00
19624;BME280;9959;49.798;9.928;2022-11-14T08:18:38;99532.13;;;4.94;100.00
19624;BME280;9959;49.798;9.928;2022-11-14T08:21:06;99545.81;;;4.96;100.00
19624;BME280;9959;49.798;9.928;2022-11-14T08:23:34;99539.53;;;4.91;100.00
19624;BME280;9959;49.798;9.928;2022-11-14T08:26:02;99542.88;;;4.84;100.00
19624;BME280;9959;49.798;9.928;2022-11-14T08:28:30;99538.84;;;4.82;100.00
19624;BME280;9959;49.798;9.928;2022-11-14T08:31:00;99544.56;;;4.92;100.00
19624;BME280;9959;49.798;9.928;2022-11-14T08:33:29;99547.53;;;4.89;100.00
19624;BME280;9959;49.798;9.928;2022-11-14T08:35:59;99546.81;;;4.95;100.00
19624;BME280;9959;49.798;9.928;2022-11-14T08:38:27;99536.34;;;4.95;100.00
19624;BME280;9959;49.798;9.928;2022-11-14T08:40:56;99518.25;;;4.94;100.00
19624;BME280;9959;49.798;9.928;2022-11-14T08:43:25;99518.25;;;4.94;100.00
19624;BME280;9959;49.798;9.928;2022-11-14T08:45:56;99525.78;;;5.03;100.00
19624;BME280;9959;49.798;9.928;2022-11-14T08:48:29;99528.47;;;5.10;100.00
19624;BME280;9959;49.798;9.928;2022-11-14T08:51:01;99520.88;;;5.15;100.00
19624;BME280;9959;49.798;9.928;2022-11-14T08:53:30;99523.94;;;5.19;100.00
19624;BME280;9959;49.798;9.928;2022-11-14T08:55:57;99533.72;;;5.38;100.00
19624;BME280;9959;49.798;9.928;2022-11-14T08:58:27;99546.75;;;5.32;100.00
19624;BME280;9959;49.798;9.928;2022-11-14T09:01:00;99540.59;;;5.18;100.00
19624;BME280;9959;49.798;9.928;2022-11-14T09:03:30;99545.69;;;5.26;100.00
19624;BME280;9959;49.798;9.928;2022-11-14T09:05:58;99541.91;;;5.29;100.00
19624;BME280;9959;49.798;9.928;2022-11-14T09:08:27;99546.59;;;5.40;100.00
19624;BME280;9959;49.798;9.928;2022-11-14T09:10:59;99536.59;;;5.44;100.00
19624;BME280;9959;49.798;9.928;2022-11-14T09:13:31;99556.75;;;5.50;100.00
19624;BME280;9959;49.798;9.928;2022-11-14T09:15:59;99552.28;;;5.44;100.00
19624;BME280;9959;49.798;9.928;2022-11-14T09:18:30;99542.75;;;5.58;100.00
19624;BME280;9959;49.798;9.928;2022-11-14T09:20:59;99530.53;;;5.65;100.00
19624;BME280;9959;49.798;9.928;2022-11-14T09:23:27;99528.34;;;5.68;100.00
19624;BME280;9959;49.798;9.928;2022-11-14T09:25:56;99517.69;;;5.70;100.00
19624;BME280;9959;49.798;9.928;2022-11-14T09:28:24;99513.88;;;6.01;100.00
19624;BME280;9959;49.798;9.928;2022-11-14T09:30:51;99514.16;;;6.19;99.50
19624;BME280;9959;49.798;9.928;2022-11-14T09:33:19;99505.25;;;6.07;98.69
19624;BME280;9959;49.798;9.928;2022-11-14T09:35:55;99508.91;;;6.13;99.20
19624;BME280;9959;49.798;9.928;2022-11-14T09:38:23;99523.00;;;6.12;98.35
19624;BME280;9959;49.798;9.928;2022-11-14T09:41:01;99513.81;;;6.29;98.11
19624;BME280;9959;49.798;9.928;2022-11-14T09:43:42;99511.63;;;6.33;97.48
19624;BME280;9959;49.798;9.928;2022-11-14T09:46:19;99509.63;;;6.41;97.96
19624;BME280;9959;49.798;9.928;2022-11-14T09:48:48;99505.19;;;6.42;97.45
19624;BME280;9959;49.798;9.928;2022-11-14T09:51:21;99514.53;;;6.65;96.01
19624;BME280;9959;49.798;9.928;2022-11-14T09:53:52;99519.22;;;6.76;95.51
19624;BME280;9959;49.798;9.928;2022-11-14T09:56:24;99514.97;;;6.75;95.75
19624;BME280;9959;49.798;9.928;2022-11-14T09:58:53;99526.72;;;6.99;94.46
19624;BME280;9959;49.798;9.928;2022-11-14T10:01:31;99515.84;;;7.02;94.19
19624;BME280;9959;49.798;9.928;2022-11-14T10:04:12;99526.34;;;7.09;93.56
19624;BME280;9959;49.798;9.928;2022-11-14T10:06:50;99526.75;;;7.19;91.98
19624;BME280;9959;49.798;9.928;2022-11-14T10:09:42;99546.31;;;7.23;91.58
19624;BME280;9959;49.798;9.928;2022-11-14T10:12:21;99540.44;;;7.21;91.54
19624;BME280;9959;49.798;9.928;2022-11-14T10:14:58;99532.59;;;7.15;92.91
19624;BME280;9959;49.798;9.928;2022-11-14T10:17:44;99535.84;;;7.37;91.19
19624;BME280;9959;49.798;9.928;2022-11-14T10:20:19;99532.41;;;7.70;90.97
19624;BME280;9959;49.798;9.928;2022-11-14T10:23:03;99525.75;;;7.47;90.98
19624;BME280;9959;49.798;9.928;2022-11-14T10:25:39;99530.38;;;7.52;90.04
19624;BME280;9959;49.798;9.928;2022-11-14T10:28:24;99519.22;;;7.96;87.93
19624;BME280;9959;49.798;9.928;2022-11-14T10:31:04;99518.19;;;8.04;86.59
19624;BME280;9959;49.798;9.928;2022-11-14T10:33:44;99521.97;;;8.22;86.63
19624;BME280;9959;49.798;9.928;2022-11-14T10:36:22;99531.13;;;7.99;86.73
19624;BME280;9959;49.798;9.928;2022-11-14T10:39:03;99526.75;;;7.59;89.08
19624;BME280;9959;49.798;9.928;2022-11-14T10:41:32;99527.97;;;7.37;89.22
19624;BME280;9959;49.798;9.928;2022-11-14T10:44:25;99527.97;;;7.50;89.50
19624;BME280;9959;49.798;9.928;2022-11-14T10:47:01;99528.72;;;7.97;88.66
19624;BME280;9959;49.798;9.928;2022-11-14T10:49:32;99519.38;;;8.15;87.42
19624;BME280;9959;49.798;9.928;2022-11-14T10:52:05;99510.09;;;8.12;86.81
19624;BME280;9959;49.798;9.928;2022-11-14T10:54:39;99509.22;;;8.25;85.66
19624;BME280;9959;49.798;9.928;2022-11-14T10:57:14;99513.25;;;8.34;84.62
19624;BME280;9959;49.798;9.928;2022-11-14T10:59:42;99506.63;;;8.77;82.71
19624;BME280;9959;49.798;9.928;2022-11-14T11:02:11;99504.25;;;8.94;81.68
19624;BME280;9959;49.798;9.928;2022-11-14T11:04:39;99504.00;;;8.71;82.82
19624;BME280;9959;49.798;9.928;2022-11-14T11:07:28;99499.63;;;8.58;83.95
19624;BME280;9959;49.798;9.928;2022-11-14T11:10:22;99494.84;;;8.41;83.73
19624;BME280;9959;49.798;9.928;2022-11-14T11:13:11;99499.84;;;9.20;81.87
19624;BME280;9959;49.798;9.928;2022-11-14T11:15:41;99494.59;;;9.45;80.95
19624;BME280;9959;49.798;9.928;2022-11-14T11:18:25;99487.72;;;8.87;81.88
19624;BME280;9959;49.798;9.928;2022-11-14T11:21:02;99501.38;;;8.77;82.98
19624;BME280;9959;49.798;9.928;2022-11-14T11:23:30;99517.13;;;9.34;80.60
19624;BME280;9959;49.798;9.928;2022-11-14T11:26:00;99503.16;;;10.70;75.44
19624;BME280;9959;49.798;9.928;2022-11-14T11:28:32;99512.34;;;10.49;73.70
19624;BME280;9959;49.798;9.928;2022-11-14T11:31:02;99505.47;;;10.48;74.06
19624;BME280;9959;49.798;9.928;2022-11-14T11:33:32;99497.22;;;10.07;74.82
19624;BME280;9959;49.798;9.928;2022-11-14T11:36:02;99500.22;;;9.24;78.54
19624;BME280;9959;49.798;9.928;2022-11-14T11:38:32;99502.94;;;9.10;80.26
19624;BME280;9959;49.798;9.928;2022-11-14T11:41:13;99492.72;;;9.02;80.58
19624;BME280;9959;49.798;9.928;2022-11-14T11:44:09;99492.78;;;9.20;80.45
19624;BME280;9959;49.798;9.928;2022-11-14T11:46:43;99474.16;;;9.22;80.19
19624;BME280;9959;49.798;9.928;2022-11-14T11:49:15;99471.06;;;8.68;82.66
19624;BME280;9959;49.798;9.928;2022-11-14T11:51:45;99469.78;;;8.45;83.77
19624;BME280;9959;49.798;9.928;2022-11-14T11:54:15;99473.00;;;8.47;84.76
19624;BME280;9959;49.798;9.928;2022-11-14T11:56:47;99466.25;;;8.65;83.40
19624;BME280;9959;49.798;9.928;2022-11-14T11:59:25;99467.53;;;9.13;82.08
19624;BME280;9959;49.798;9.928;2022-11-14T12:01:55;99472.91;;;8.67;83.11
19624;BME280;9959;49.798;9.928;2022-11-14T12:04:23;99466.25;;;8.65;83.73
19624;BME280;9959;49.798;9.928;2022-11-14T12:06:56;99468.78;;;8.78;83.10
19624;BME280;9959;49.798;9.928;2022-11-14T12:09:32;99458.66;;;9.07;82.73
19624;BME280;9959;49.798;9.928;2022-11-14T12:12:34;99462.22;;;9.19;82.05
19624;BME280;9959;49.798;9.928;2022-11-14T12:15:12;99451.97;;;8.86;82.98
19624;BME280;9959;49.798;9.928;2022-11-14T12:17:56;99439.00;;;8.53;84.91
19624;BME280;9959;49.798;9.928;2022-11-14T12:20:50;99441.81;;;8.58;86.07
19624;BME280;9959;49.798;9.928;2022-11-14T12:26:43;99439.78;;;8.60;85.30
19624;BME280;9959;49.798;9.928;2022-11-14T12:29:34;99433.63;;;8.73;85.19
19624;BME280;9959;49.798;9.928;2022-11-14T12:32:09;99429.41;;;8.72;85.73
19624;BME280;9959;49.798;9.928;2022-11-14T12:34:40;99431.25;;;8.96;84.50
19624;BME280;9959;49.798;9.928;2022-11-14T12:37:15;99432.16;;;8.83;85.11
19624;BME280;9959;49.798;9.928;2022-11-14T12:39:54;99435.16;;;9.12;84.41
19624;BME280;9959;49.798;9.928;2022-11-14T12:42:23;99428.94;;;9.07;84.10
19624;BME280;9959;49.798;9.928;2022-11-14T12:44:53;99428.13;;;8.81;84.98
19624;BME280;9959;49.798;9.928;2022-11-14T12:47:22;99421.94;;;8.68;85.41
19624;BME280;9959;49.798;9.928;2022-11-14T12:53:01;99425.81;;;8.91;85.52
19624;BME280;9959;49.798;9.928;2022-11-14T12:56:13;99415.84;;;9.00;85.16
19624;BME280;9959;49.798;9.928;2022-11-14T12:58:57;99405.09;;;9.01;85.21
19624;BME280;9959;49.798;9.928;2022-11-14T13:01:46;99411.97;;;9.28;84.02
19624;BME280;9959;49.798;9.928;2022-11-14T13:04:21;99403.91;;;9.48;83.89
19624;BME280;9959;49.798;9.928;2022-11-14T13:07:02;99395.91;;;9.54;82.60
19624;BME280;9959;49.798;9.928;2022-11-14T13:09:40;99397.81;;;9.47;82.89
19624;BME280;9959;49.798;9.928;2022-11-14T13:12:37;99392.69;;;9.52;82.59
19624;BME280;9959;49.798;9.928;2022-11-14T13:15:28;99390.06;;;9.34;84.15
19624;BME280;9959;49.798;9.928;2022-11-14T13:18:20;99390.34;;;9.44;83.99
19624;BME280;9959;49.798;9.928;2022-11-14T13:21:18;99390.06;;;9.71;83.24
19624;BME280;9959;49.798;9.928;2022-11-14T13:24:11;99378.28;;;9.73;83.63
19624;BME280;9959;49.798;9.928;2022-11-14T13:26:44;99380.72;;;10.66;80.23
19624;BME280;9959;49.798;9.928;2022-11-14T13:35:44;99365.63;;;12.77;69.01
19624;BME280;9959;49.798;9.928;2022-11-14T13:38:39;99363.94;;;12.54;68.98
19624;BME280;9959;49.798;9.928;2022-11-14T13:44:57;99357.28;;;14.13;64.26
19624;BME280;9959;49.798;9.928;2022-11-14T13:47:46;99354.00;;;14.93;60.58
19624;BME280;9959;49.798;9.928;2022-11-14T13:50:18;99346.66;;;15.63;57.92
19624;BME280;9959;49.798;9.928;2022-11-14T13:52:54;99347.88;;;16.19;56.33
19624;BME280;9959;49.798;9.928;2022-11-14T13:55:27;99355.69;;;13.84;62.57